createdAt,value
2019-06-10T00:02:05.919Z,17.90
2019-06-10T00:04:37.590Z,17.90
2019-06-10T00:07:07.560Z,17.90
2019-06-10T00:09:37.142Z,17.90
2019-06-10T00:12:08.154Z,17.90
2019-06-10T00:14:38.273Z,17.90
2019-06-10T00:17:10.984Z,17.90
2019-06-10T00:19:41.522Z,17.90
2019-06-10T00:22:11.485Z,18.00
2019-06-10T00:24:41.420Z,18.00
2019-06-10T00:27:11.847Z,18.00
2019-06-10T00:29:41.684Z,17.90
2019-06-10T00:32:13.180Z,18.00
2019-06-10T00:34:42.328Z,18.00
2019-06-10T00:37:14.542Z,18.00
2019-06-10T00:39:42.979Z,17.90
2019-06-10T00:42:15.076Z,17.90
2019-06-10T00:44:43.330Z,17.90
2019-06-10T00:47:14.986Z,17.90
2019-06-10T00:49:43.891Z,17.90
2019-06-10T00:52:13.994Z,17.90
2019-06-10T00:54:43.559Z,17.80
2019-06-10T00:57:13.785Z,17.90
2019-06-10T00:59:43.734Z,17.80
2019-06-10T01:02:14.504Z,17.80
2019-06-10T01:04:44.207Z,17.80
2019-06-10T01:07:14.913Z,17.70
2019-06-10T01:09:44.361Z,17.70
2019-06-10T01:12:15.002Z,17.70
2019-06-10T01:14:44.447Z,17.80
2019-06-10T01:17:15.231Z,17.70
2019-06-10T01:19:44.946Z,17.70
2019-06-10T01:22:15.544Z,17.80
2019-06-10T01:24:45.206Z,17.70
2019-06-10T01:27:15.129Z,17.70
2019-06-10T01:29:44.689Z,17.70
2019-06-10T01:32:15.094Z,17.60
2019-06-10T01:34:44.627Z,17.60
2019-06-10T01:37:14.746Z,17.60
2019-06-10T01:39:45.041Z,17.60
2019-06-10T01:42:15.901Z,17.50
2019-06-10T01:44:46.239Z,17.50
2019-06-10T01:47:16.127Z,17.50
2019-06-10T01:49:46.617Z,17.50
2019-06-10T01:52:16.965Z,17.50
2019-06-10T01:54:46.905Z,17.50
2019-06-10T01:57:17.063Z,17.50
2019-06-10T01:59:47.071Z,17.50
2019-06-10T02:02:23.415Z,17.40
2019-06-10T02:04:51.749Z,17.40
2019-06-10T02:07:23.056Z,17.40
2019-06-10T02:09:52.363Z,17.40
2019-06-10T02:12:24.034Z,17.30
2019-06-10T02:14:52.881Z,17.30
2019-06-10T02:17:23.894Z,17.30
2019-06-10T02:19:53.119Z,17.30
2019-06-10T02:22:24.241Z,17.30
2019-06-10T02:24:53.306Z,17.30
2019-06-10T02:27:23.234Z,17.30
2019-06-10T02:29:52.832Z,17.30
2019-06-10T02:32:31.267Z,17.30
2019-06-10T02:35:08.197Z,17.30
2019-06-10T02:37:31.917Z,17.30
2019-06-10T02:39:55.411Z,17.30
2019-06-10T02:42:31.080Z,17.30
2019-06-10T02:45:03.756Z,17.30
2019-06-10T02:47:37.268Z,17.20
2019-06-10T02:50:08.267Z,17.20
2019-06-10T02:52:38.235Z,17.20
2019-06-10T02:55:05.764Z,17.20
2019-06-10T02:57:40.101Z,17.10
2019-06-10T03:00:19.859Z,17.00
2019-06-10T03:02:39.732Z,17.00
2019-06-10T03:05:09.147Z,17.00
2019-06-10T03:07:38.510Z,16.90
2019-06-10T03:10:07.884Z,16.70
2019-06-10T03:12:37.227Z,16.40
2019-06-10T03:15:07.836Z,16.30
2019-06-10T03:17:37.323Z,16.10
2019-06-10T03:20:06.991Z,16.00
2019-06-10T03:22:36.420Z,15.90
2019-06-10T03:27:56.462Z,15.90
2019-06-10T03:30:47.437Z,15.90
2019-06-10T03:33:13.754Z,15.90
2019-06-10T03:36:03.292Z,15.80
2019-06-10T03:42:07.154Z,15.70
2019-06-10T03:44:36.499Z,15.60
2019-06-10T03:47:43.164Z,15.60
2019-06-10T03:50:13.516Z,15.60
2019-06-10T03:54:05.568Z,15.70
2019-06-10T03:56:32.344Z,15.70
2019-06-10T03:59:02.762Z,15.60
2019-06-10T04:01:46.424Z,15.50
2019-06-10T04:04:25.181Z,15.30
2019-06-10T04:06:59.186Z,15.20
2019-06-10T04:09:28.905Z,15.10
2019-06-10T04:11:58.401Z,15.00
2019-06-10T04:14:41.997Z,14.90
2019-06-10T04:17:35.659Z,14.80
2019-06-10T04:21:08.222Z,14.90
2019-06-10T04:23:49.524Z,14.90
2019-06-10T04:26:24.503Z,14.80
2019-06-10T04:29:37.679Z,14.70
2019-06-10T04:32:07.069Z,14.70
2019-06-10T04:34:57.955Z,14.70
2019-06-10T04:37:34.244Z,14.70
2019-06-10T04:40:10.134Z,14.70
2019-06-10T04:42:43.610Z,14.70
2019-06-10T04:45:14.073Z,14.70
2019-06-10T04:47:43.764Z,14.80
2019-06-10T04:54:54.649Z,14.90
2019-06-10T04:57:26.445Z,14.90
2019-06-10T04:59:55.531Z,14.80
2019-06-10T05:02:26.823Z,14.90
2019-06-10T05:05:02.863Z,14.90
2019-06-10T05:11:14.815Z,14.90
2019-06-10T05:13:50.019Z,14.90
2019-06-10T05:16:54.282Z,14.90
2019-06-10T05:19:33.663Z,14.90
2019-06-10T05:22:22.708Z,14.80
2019-06-10T05:24:54.736Z,14.80
2019-06-10T05:27:45.575Z,14.90
2019-06-10T05:30:29.466Z,15.00
2019-06-10T05:33:28.617Z,14.90
2019-06-10T05:35:58.559Z,14.90
2019-06-10T05:39:30.801Z,14.90
2019-06-10T05:42:03.315Z,15.00
2019-06-10T05:45:43.070Z,15.10
2019-06-10T05:48:18.455Z,15.10
2019-06-10T05:51:00.176Z,15.10
2019-06-10T05:53:48.109Z,15.20
2019-06-10T05:59:35.960Z,15.40
2019-06-10T06:02:05.824Z,15.50
2019-06-10T06:04:36.054Z,15.70
2019-06-10T06:07:05.174Z,15.80
2019-06-10T06:09:35.227Z,15.90
2019-06-10T06:12:04.730Z,16.00
2019-06-10T06:14:35.619Z,16.10
2019-06-10T06:17:03.868Z,16.10
2019-06-10T06:19:33.689Z,16.00
2019-06-10T06:22:03.142Z,16.20
2019-06-10T06:24:33.917Z,16.40
2019-06-10T06:27:02.564Z,16.60
2019-06-10T06:29:33.889Z,16.70
2019-06-10T06:32:02.697Z,16.80
2019-06-10T06:34:35.103Z,16.80
2019-06-10T06:37:02.275Z,16.90
2019-06-10T06:39:33.467Z,17.10
2019-06-10T06:42:02.315Z,17.10
2019-06-10T06:44:33.045Z,17.40
2019-06-10T06:47:02.761Z,17.60
2019-06-10T06:49:35.188Z,17.70
2019-06-10T06:52:03.687Z,17.70
2019-06-10T06:54:33.411Z,17.70
2019-06-10T06:57:03.602Z,17.90
2019-06-10T06:59:34.286Z,18.10
2019-06-10T07:02:03.229Z,18.30
2019-06-10T07:04:34.223Z,18.30
2019-06-10T07:07:03.189Z,18.50
2019-06-10T07:09:35.799Z,18.60
2019-06-10T07:12:05.584Z,18.60
2019-06-10T07:14:37.301Z,18.50
2019-06-10T07:17:05.270Z,18.60
2019-06-10T07:19:35.103Z,18.50
2019-06-10T07:22:12.258Z,18.50
2019-06-10T07:24:37.895Z,18.70
2019-06-10T07:27:05.488Z,19.00
2019-06-10T07:29:36.766Z,19.10
2019-06-10T07:32:04.629Z,19.20
2019-06-10T07:34:35.516Z,19.40
2019-06-10T07:37:03.831Z,19.50
2019-06-10T07:39:34.661Z,19.60
2019-06-10T07:42:03.165Z,19.80
2019-06-10T07:44:33.356Z,19.90
2019-06-10T07:47:02.748Z,20.00
2019-06-10T07:49:33.470Z,20.20
2019-06-10T07:52:12.974Z,20.30
2019-06-10T07:54:33.241Z,20.40
2019-06-10T07:57:02.882Z,20.50
2019-06-10T07:59:32.223Z,20.60
2019-06-10T08:02:03.064Z,20.60
2019-06-10T08:04:33.589Z,20.80
2019-06-10T08:07:03.356Z,20.90
2019-06-10T08:09:33.681Z,21.00
2019-06-10T08:12:05.844Z,21.20
2019-06-10T08:14:33.166Z,21.30
2019-06-10T08:17:03.109Z,21.50
2019-06-10T08:19:37.667Z,21.40
2019-06-10T08:22:03.055Z,21.40
2019-06-10T08:24:32.955Z,21.60
2019-06-10T08:27:02.668Z,21.80
2019-06-10T08:29:33.012Z,21.90
2019-06-10T08:32:03.249Z,22.00
2019-06-10T08:34:32.957Z,22.40
2019-06-10T08:37:04.393Z,22.40
2019-06-10T08:39:33.526Z,22.60
2019-06-10T08:42:03.176Z,22.60
2019-06-10T08:44:32.859Z,22.50
2019-06-10T08:47:03.105Z,22.10
2019-06-10T08:49:32.745Z,22.30
2019-06-10T08:52:02.702Z,22.30
2019-06-10T08:54:32.451Z,22.20
2019-06-10T08:57:04.382Z,22.30
2019-06-10T08:59:32.580Z,22.20
2019-06-10T09:02:02.977Z,22.30
2019-06-10T09:04:33.098Z,22.40
2019-06-10T09:07:04.206Z,22.60
2019-06-10T09:09:33.519Z,22.50
2019-06-10T09:12:03.659Z,22.70
2019-06-10T09:14:32.733Z,22.80
2019-06-10T09:17:03.367Z,22.80
2019-06-10T09:19:33.181Z,23.20
2019-06-10T09:22:03.468Z,23.50
2019-06-10T09:24:32.919Z,23.60
2019-06-10T09:27:02.956Z,23.70
2019-06-10T09:29:32.943Z,23.70
2019-06-10T09:32:02.252Z,23.30
2019-06-10T09:34:33.109Z,23.60
2019-06-10T09:37:03.975Z,23.80
2019-06-10T09:39:32.861Z,24.20
2019-06-10T09:42:06.149Z,24.40
2019-06-10T09:44:33.353Z,24.40
2019-06-10T09:47:04.290Z,24.20
2019-06-10T09:49:33.653Z,24.40
2019-06-10T09:52:03.349Z,24.50
2019-06-10T09:54:33.488Z,24.50
2019-06-10T09:57:03.291Z,24.50
2019-06-10T09:59:32.493Z,24.80
2019-06-10T10:02:03.631Z,25.00
2019-06-10T10:04:32.642Z,25.20
2019-06-10T10:07:03.070Z,24.80
2019-06-10T10:09:36.775Z,24.80
2019-06-10T10:12:03.544Z,24.60
2019-06-10T10:14:33.496Z,24.70
2019-06-10T10:17:04.792Z,24.60
2019-06-10T10:19:33.045Z,24.50
2019-06-10T10:22:03.047Z,24.80
2019-06-10T10:24:34.049Z,24.90
2019-06-10T10:27:06.931Z,24.90
2019-06-10T10:29:33.423Z,24.90
2019-06-10T10:32:02.661Z,25.10
2019-06-10T10:34:33.311Z,25.20
2019-06-10T10:37:02.866Z,25.40
2019-06-10T10:39:32.769Z,25.70
2019-06-10T10:42:03.316Z,25.40
2019-06-10T10:44:32.301Z,25.50
2019-06-10T10:47:03.056Z,25.40
2019-06-10T10:49:32.595Z,25.40
2019-06-10T10:52:02.632Z,25.40
2019-06-10T10:54:36.366Z,25.40
2019-06-10T10:57:02.743Z,25.50
2019-06-10T10:59:33.264Z,25.50
2019-06-10T11:02:02.511Z,25.60
2019-06-10T11:04:32.858Z,25.80
2019-06-10T11:07:02.045Z,25.90
2019-06-10T11:09:33.092Z,26.10
2019-06-10T11:12:03.496Z,26.30
2019-06-10T11:14:34.020Z,26.50
2019-06-10T11:17:03.046Z,26.50
2019-06-10T11:19:32.946Z,26.50
2019-06-10T11:22:02.964Z,26.70
2019-06-10T11:24:37.671Z,26.70
2019-06-10T11:27:03.111Z,26.50
2019-06-10T11:29:33.019Z,26.50
2019-06-10T11:32:03.042Z,26.60
2019-06-10T11:34:33.265Z,26.70
2019-06-10T11:37:02.463Z,26.80
2019-06-10T11:39:33.809Z,26.90
2019-06-10T11:42:02.907Z,26.90
2019-06-10T11:44:33.878Z,27.00
2019-06-10T11:47:03.192Z,27.00
2019-06-10T11:49:32.166Z,27.10
2019-06-10T11:52:03.047Z,27.30
2019-06-10T11:54:34.021Z,27.50
2019-06-10T11:57:01.845Z,27.60
2019-06-10T11:59:32.736Z,27.80
2019-06-10T12:02:05.679Z,27.60
2019-06-10T12:04:31.913Z,27.30
2019-06-10T12:07:02.402Z,27.40
2019-06-10T12:09:33.184Z,27.40
2019-06-10T12:12:02.406Z,27.20
2019-06-10T12:14:33.124Z,27.50
2019-06-10T12:19:34.064Z,27.50
2019-06-10T12:22:07.089Z,27.50
2019-06-10T12:24:34.146Z,27.60
2019-06-10T12:27:05.113Z,27.40
2019-06-10T12:29:33.768Z,27.50
2019-06-10T12:32:06.882Z,27.60
2019-06-10T12:34:33.393Z,27.60
2019-06-10T12:37:10.677Z,27.60
2019-06-10T12:39:32.880Z,27.60
2019-06-10T12:42:06.190Z,27.50
2019-06-10T12:44:33.676Z,27.60
2019-06-10T12:47:07.457Z,27.50
2019-06-10T12:49:32.889Z,27.30
2019-06-10T12:52:05.357Z,27.30
2019-06-10T12:54:32.663Z,27.40
2019-06-10T12:57:04.704Z,27.40
2019-06-10T12:59:32.558Z,27.40
2019-06-10T13:02:10.607Z,27.50
2019-06-10T13:04:32.846Z,27.50
2019-06-10T13:07:05.194Z,27.50
2019-06-10T13:09:32.787Z,27.60
2019-06-10T13:12:02.051Z,27.90
2019-06-10T13:14:32.551Z,28.10
2019-06-10T13:17:03.016Z,28.10
2019-06-10T13:19:34.332Z,28.40
2019-06-10T13:22:05.972Z,28.70
2019-06-10T13:24:33.850Z,28.60
2019-06-10T13:27:04.775Z,28.70
2019-06-10T13:29:34.589Z,28.90
2019-06-10T13:32:06.203Z,29.30
2019-06-10T13:34:34.917Z,29.70
2019-06-10T13:37:06.992Z,29.70
2019-06-10T13:39:35.196Z,29.50
2019-06-10T13:42:06.862Z,29.30
2019-06-10T13:44:35.108Z,29.40
2019-06-10T13:47:07.097Z,29.40
2019-06-10T13:49:34.354Z,29.50
2019-06-10T13:52:05.783Z,29.40
2019-06-10T13:54:34.641Z,29.60
2019-06-10T13:57:06.867Z,29.50
2019-06-10T13:59:35.417Z,29.60
2019-06-10T14:02:06.370Z,29.70
2019-06-10T14:04:34.653Z,30.10
2019-06-10T14:07:07.388Z,30.10
2019-06-10T14:09:35.590Z,29.90
2019-06-10T14:12:06.017Z,29.30
2019-06-10T14:14:35.399Z,29.50
2019-06-10T14:17:05.737Z,29.90
2019-06-10T14:19:34.701Z,30.20
2019-06-10T14:22:05.893Z,30.00
2019-06-10T14:24:33.950Z,30.10
2019-06-10T14:27:04.426Z,30.10
2019-06-10T14:29:33.184Z,30.10
2019-06-10T14:32:03.549Z,30.30
2019-06-10T14:34:32.669Z,30.40
2019-06-10T14:37:01.817Z,30.40
2019-06-10T14:39:32.782Z,30.50
2019-06-10T14:42:03.813Z,30.70
2019-06-10T14:44:32.595Z,30.20
2019-06-10T14:47:02.942Z,30.30
2019-06-10T14:49:32.984Z,30.40
2019-06-10T14:52:02.777Z,30.30
2019-06-10T14:54:32.239Z,30.40
2019-06-10T14:57:02.682Z,30.40
2019-06-10T14:59:31.736Z,30.10
2019-06-10T15:02:02.636Z,30.60
2019-06-10T15:04:33.016Z,30.50
2019-06-10T15:07:02.928Z,30.40
2019-06-10T15:09:33.439Z,29.80
2019-06-10T15:12:02.890Z,29.60
2019-06-10T15:14:32.832Z,29.50
2019-06-10T15:17:02.760Z,29.50
2019-06-10T15:19:33.242Z,29.40
2019-06-10T15:22:03.073Z,29.60
2019-06-10T15:24:33.501Z,29.60
2019-06-10T15:27:10.159Z,29.60
2019-06-10T15:29:32.960Z,29.20
2019-06-10T15:32:10.392Z,29.10
2019-06-10T15:34:32.662Z,29.00
2019-06-10T15:37:02.792Z,29.00
2019-06-10T15:39:33.311Z,28.80
2019-06-10T15:42:03.043Z,28.80
2019-06-10T15:44:52.480Z,28.70
2019-06-10T15:47:03.069Z,28.60
2019-06-10T15:49:32.811Z,28.40
2019-06-10T15:52:03.300Z,28.20
2019-06-10T15:54:33.354Z,28.20
2019-06-10T15:57:03.166Z,27.90
2019-06-10T15:59:32.399Z,27.80
2019-06-10T16:02:02.633Z,27.80
2019-06-10T16:04:34.987Z,27.70
2019-06-10T16:07:02.763Z,27.70
2019-06-10T16:09:32.231Z,27.60
2019-06-10T16:12:03.016Z,27.30
2019-06-10T16:14:33.226Z,27.20
2019-06-10T16:17:03.163Z,27.30
2019-06-10T16:19:34.170Z,27.20
2019-06-10T16:22:03.308Z,27.10
2019-06-10T16:24:33.279Z,26.90
2019-06-10T16:27:03.358Z,26.80
2019-06-10T16:29:33.332Z,26.80
2019-06-10T16:32:02.639Z,26.90
2019-06-10T16:34:32.544Z,26.60
2019-06-10T16:37:02.382Z,26.60
2019-06-10T16:39:32.550Z,26.60
2019-06-10T16:42:03.013Z,26.70
2019-06-10T16:44:32.965Z,26.60
2019-06-10T16:47:03.290Z,26.60
2019-06-10T16:49:32.877Z,26.60
2019-06-10T16:52:03.041Z,26.30
2019-06-10T16:54:32.949Z,26.30
2019-06-10T16:57:03.865Z,26.20
2019-06-10T16:59:32.961Z,26.00
2019-06-10T17:02:02.358Z,26.00
2019-06-10T17:04:33.094Z,26.10
2019-06-10T17:07:02.269Z,26.10
2019-06-10T17:09:32.828Z,26.10
2019-06-10T17:12:02.233Z,26.00
2019-06-10T17:14:33.540Z,26.00
2019-06-10T17:17:03.524Z,25.80
2019-06-10T17:19:33.319Z,25.70
2019-06-10T17:22:02.434Z,25.80
2019-06-10T17:24:33.882Z,25.60
2019-06-10T17:27:02.905Z,25.60
2019-06-10T17:29:33.498Z,25.60
2019-06-10T17:32:02.745Z,25.50
2019-06-10T17:34:33.947Z,25.40
2019-06-10T17:37:03.110Z,25.40
2019-06-10T17:39:34.576Z,25.40
2019-06-10T17:42:02.885Z,25.30
2019-06-10T17:44:32.507Z,25.20
2019-06-10T17:47:02.294Z,25.20
2019-06-10T17:49:34.415Z,25.00
2019-06-10T17:52:02.537Z,25.00
2019-06-10T17:54:32.454Z,25.00
2019-06-10T17:57:02.390Z,25.10
2019-06-10T17:59:33.592Z,25.00
2019-06-10T18:02:02.996Z,24.90
2019-06-10T18:04:31.893Z,24.80
2019-06-10T18:07:02.235Z,24.70
2019-06-10T18:09:34.694Z,24.80
2019-06-10T18:12:02.489Z,24.60
2019-06-10T18:14:34.280Z,24.60
2019-06-10T18:17:02.242Z,24.50
2019-06-10T18:19:34.156Z,24.50
2019-06-10T18:22:03.041Z,24.50
2019-06-10T18:24:32.975Z,24.40
2019-06-10T18:27:02.484Z,24.30
2019-06-10T18:29:33.670Z,24.30
2019-06-10T18:32:03.471Z,24.20
2019-06-10T18:34:34.596Z,24.10
2019-06-10T18:37:02.901Z,24.00
2019-06-10T18:39:31.944Z,24.00
2019-06-10T18:42:03.183Z,24.00
2019-06-10T18:44:33.931Z,23.90
2019-06-10T18:47:02.924Z,23.80
2019-06-10T18:49:33.984Z,23.70
2019-06-10T18:52:02.473Z,23.70
2019-06-10T18:54:34.135Z,23.60
2019-06-10T18:57:03.217Z,23.60
2019-06-10T18:59:34.654Z,23.50
2019-06-10T19:02:06.186Z,23.50
2019-06-10T19:04:36.474Z,23.40
2019-06-10T19:07:04.629Z,23.30
2019-06-10T19:09:37.317Z,23.20
2019-06-10T19:12:08.906Z,23.10
2019-06-10T19:14:38.350Z,23.10
2019-06-10T19:17:07.571Z,23.10
2019-06-10T19:19:38.134Z,23.00
2019-06-10T19:22:09.480Z,22.90
2019-06-10T19:24:43.932Z,22.80
2019-06-10T19:27:11.831Z,22.70
2019-06-10T19:29:50.079Z,22.60
2019-06-10T19:32:13.221Z,22.60
2019-06-10T19:34:48.225Z,22.50
2019-06-10T19:37:15.165Z,22.50
2019-06-10T19:39:50.238Z,22.40
2019-06-10T19:42:14.311Z,22.30
2019-06-10T19:44:45.559Z,22.20
2019-06-10T19:47:13.537Z,22.20
2019-06-10T19:49:43.615Z,22.10
2019-06-10T19:52:12.734Z,22.00
2019-06-10T19:54:43.845Z,21.90
2019-06-10T19:57:12.874Z,22.00
2019-06-10T20:00:01.211Z,22.00
2019-06-10T20:02:12.509Z,22.00
2019-06-10T20:04:42.826Z,21.90
2019-06-10T20:07:12.830Z,21.90
2019-06-10T20:09:44.640Z,21.80
2019-06-10T20:12:13.994Z,21.70
2019-06-10T20:14:44.573Z,21.70
2019-06-10T20:17:13.741Z,21.60
2019-06-10T20:19:44.317Z,21.50
2019-06-10T20:22:12.998Z,21.50
2019-06-10T20:24:44.812Z,21.50
2019-06-10T20:27:12.211Z,21.40
2019-06-10T20:29:42.968Z,21.40
2019-06-10T20:32:11.496Z,21.30
2019-06-10T20:34:41.390Z,21.30
2019-06-10T20:37:10.316Z,21.30
2019-06-10T20:39:40.570Z,21.30
2019-06-10T20:42:09.621Z,21.30
2019-06-10T20:44:38.426Z,21.30
2019-06-10T20:47:07.223Z,21.30
2019-06-10T20:49:37.667Z,21.20
2019-06-10T20:52:11.520Z,21.10
2019-06-10T20:54:38.230Z,21.10
2019-06-10T20:57:07.305Z,21.10
2019-06-10T20:59:36.089Z,21.10
2019-06-10T21:02:04.991Z,21.10
2019-06-10T21:04:34.243Z,21.10
2019-06-10T21:07:03.820Z,21.10
2019-06-10T21:09:33.325Z,21.10
2019-06-10T21:12:02.208Z,21.00
2019-06-10T21:14:33.117Z,21.00
2019-06-10T21:17:02.993Z,21.00
2019-06-10T21:19:33.093Z,21.00
2019-06-10T21:22:02.757Z,21.10
2019-06-10T21:24:32.342Z,21.00
2019-06-10T21:27:01.363Z,21.10
2019-06-10T21:29:32.175Z,21.00
2019-06-10T21:32:03.301Z,21.00
2019-06-10T21:34:32.707Z,21.00
2019-06-10T21:37:03.183Z,21.00
2019-06-10T21:39:32.226Z,21.00
2019-06-10T21:42:02.240Z,21.00
2019-06-10T21:44:32.052Z,21.00
2019-06-10T21:47:02.539Z,20.90
2019-06-10T21:49:32.220Z,20.90
2019-06-10T21:52:02.890Z,20.90
2019-06-10T21:54:33.048Z,21.00
2019-06-10T21:57:02.640Z,21.00
2019-06-10T21:59:32.189Z,21.00
2019-06-10T22:02:02.287Z,20.90
2019-06-10T22:04:32.662Z,21.00
2019-06-10T22:07:03.164Z,20.90
2019-06-10T22:09:32.333Z,21.00
2019-06-10T22:12:02.922Z,20.90
2019-06-10T22:14:32.999Z,20.90
2019-06-10T22:17:03.073Z,20.90
2019-06-10T22:19:32.325Z,20.90
2019-06-10T22:22:02.730Z,20.90
2019-06-10T22:24:32.206Z,20.90
2019-06-10T22:27:02.715Z,20.80
2019-06-10T22:29:32.267Z,20.80
2019-06-10T22:32:03.062Z,20.80
2019-06-10T22:34:32.973Z,20.80
2019-06-10T22:37:03.180Z,20.70
2019-06-10T22:39:32.547Z,20.70
2019-06-10T22:42:02.990Z,20.70
2019-06-10T22:44:33.114Z,20.70
2019-06-10T22:47:02.924Z,20.60
2019-06-10T22:49:32.827Z,20.50
2019-06-10T22:52:01.970Z,20.40
2019-06-10T22:54:32.226Z,20.30
2019-06-10T22:57:02.885Z,20.20
2019-06-10T22:59:31.533Z,20.00
2019-06-10T23:02:02.823Z,20.00
2019-06-10T23:04:33.099Z,19.90
2019-06-10T23:07:03.028Z,19.80
2019-06-10T23:09:31.509Z,19.50
2019-06-10T23:12:02.664Z,19.40
2019-06-10T23:14:33.055Z,19.30
2019-06-10T23:17:02.936Z,19.40
2019-06-10T23:19:33.090Z,19.30
2019-06-10T23:22:02.923Z,19.20
2019-06-10T23:24:32.387Z,19.10
2019-06-10T23:27:03.049Z,18.90
2019-06-10T23:29:32.437Z,18.70
2019-06-10T23:32:06.481Z,18.60
2019-06-10T23:34:33.043Z,18.60
2019-06-10T23:37:01.989Z,18.60
2019-06-10T23:39:33.237Z,18.50
2019-06-10T23:42:01.186Z,18.50
2019-06-10T23:44:29.870Z,18.50
2019-06-10T23:46:59.350Z,18.50
2019-06-10T23:49:28.457Z,18.50
2019-06-10T23:51:57.617Z,18.60
2019-06-10T23:54:27.639Z,18.70
2019-06-10T23:56:56.619Z,18.60
2019-06-10T23:59:25.552Z,18.60
